sensor_id;sensor_type;location;lat;lon;timestamp;temperature;humidity
16827;DHT22;8530;49.540;8.576;2022-12-15T00:00:48;-1.70;99.90
16827;DHT22;8530;49.540;8.576;2022-12-15T00:03:32;-1.70;99.90
16827;DHT22;8530;49.540;8.576;2022-12-15T00:06:17;-1.70;99.90
16827;DHT22;8530;49.540;8.576;2022-12-15T00:09:01;-1.70;99.90
16827;DHT22;8530;49.540;8.576;2022-12-15T00:11:47;-1.70;99.90
16827;DHT22;8530;49.540;8.576;2022-12-15T00:14:33;-1.70;99.90
16827;DHT22;8530;49.540;8.576;2022-12-15T00:17:17;-1.70;99.90
16827;DHT22;8530;49.540;8.576;2022-12-15T00:20:01;-1.60;99.90
16827;DHT22;8530;49.540;8.576;2022-12-15T00:22:46;-1.60;99.90
16827;DHT22;8530;49.540;8.576;2022-12-15T00:25:30;-1.60;99.90
16827;DHT22;8530;49.540;8.576;2022-12-15T00:28:16;-1.60;99.90
16827;DHT22;8530;49.540;8.576;2022-12-15T00:31:00;-1.70;99.90
16827;DHT22;8530;49.540;8.576;2022-12-15T00:33:44;-1.70;99.90
16827;DHT22;8530;49.540;8.576;2022-12-15T00:36:28;-1.70;99.90
16827;DHT22;8530;49.540;8.576;2022-12-15T00:39:12;-1.70;99.90
16827;DHT22;8530;49.540;8.576;2022-12-15T00:41:39;-1.70;99.90
16827;DHT22;8530;49.540;8.576;2022-12-15T00:44:07;-1.60;99.90
16827;DHT22;8530;49.540;8.576;2022-12-15T00:46:34;-1.60;99.90
16827;DHT22;8530;49.540;8.576;2022-12-15T00:49:19;-1.60;99.90
16827;DHT22;8530;49.540;8.576;2022-12-15T00:52:05;-1.60;99.90
16827;DHT22;8530;49.540;8.576;2022-12-15T00:54:49;-1.60;99.90
16827;DHT22;8530;49.540;8.576;2022-12-15T00:57:33;-1.60;99.90
16827;DHT22;8530;49.540;8.576;2022-12-15T01:00:19;-1.50;99.90
16827;DHT22;8530;49.540;8.576;2022-12-15T01:03:09;-1.50;99.90
16827;DHT22;8530;49.540;8.576;2022-12-15T01:05:54;-1.50;99.90
16827;DHT22;8530;49.540;8.576;2022-12-15T01:08:38;-1.40;99.90
16827;DHT22;8530;49.540;8.576;2022-12-15T01:11:22;-1.40;99.90
16827;DHT22;8530;49.540;8.576;2022-12-15T01:14:06;-1.50;99.90
16827;DHT22;8530;49.540;8.576;2022-12-15T01:16:52;-1.50;99.90
16827;DHT22;8530;49.540;8.576;2022-12-15T01:19:36;-1.50;99.90
16827;DHT22;8530;49.540;8.576;2022-12-15T01:22:20;-1.50;99.90
16827;DHT22;8530;49.540;8.576;2022-12-15T01:24:47;-1.60;99.90
16827;DHT22;8530;49.540;8.576;2022-12-15T01:27:14;-1.50;99.90
16827;DHT22;8530;49.540;8.576;2022-12-15T01:29:41;-1.60;99.90
16827;DHT22;8530;49.540;8.576;2022-12-15T01:32:11;-1.60;99.90
16827;DHT22;8530;49.540;8.576;2022-12-15T01:34:37;-1.60;99.90
16827;DHT22;8530;49.540;8.576;2022-12-15T01:37:04;-1.60;99.90
16827;DHT22;8530;49.540;8.576;2022-12-15T01:39:31;-1.60;99.90
16827;DHT22;8530;49.540;8.576;2022-12-15T01:42:12;-1.50;99.90
16827;DHT22;8530;49.540;8.576;2022-12-15T01:44:39;-1.60;99.90
16827;DHT22;8530;49.540;8.576;2022-12-15T01:47:12;-1.50;99.90
16827;DHT22;8530;49.540;8.576;2022-12-15T01:49:42;-1.50;99.90
16827;DHT22;8530;49.540;8.576;2022-12-15T01:52:14;-1.50;99.90
16827;DHT22;8530;49.540;8.576;2022-12-15T01:54:45;-1.50;99.90
16827;DHT22;8530;49.540;8.576;2022-12-15T01:57:17;-1.50;99.90
16827;DHT22;8530;49.540;8.576;2022-12-15T01:59:48;-1.50;99.90
16827;DHT22;8530;49.540;8.576;2022-12-15T02:02:18;-1.50;99.90
16827;DHT22;8530;49.540;8.576;2022-12-15T02:04:47;-1.50;99.90
16827;DHT22;8530;49.540;8.576;2022-12-15T02:07:16;-1.50;99.90
16827;DHT22;8530;49.540;8.576;2022-12-15T02:09:45;-1.50;99.90
16827;DHT22;8530;49.540;8.576;2022-12-15T02:12:20;-1.50;99.90
16827;DHT22;8530;49.540;8.576;2022-12-15T02:14:59;-1.50;99.90
16827;DHT22;8530;49.540;8.576;2022-12-15T02:17:35;-1.50;99.90
16827;DHT22;8530;49.540;8.576;2022-12-15T02:23:28;-1.50;99.90
16827;DHT22;8530;49.540;8.576;2022-12-15T02:26:16;-1.50;99.90
16827;DHT22;8530;49.540;8.576;2022-12-15T02:28:52;-1.40;99.90
16827;DHT22;8530;49.540;8.576;2022-12-15T02:31:25;-1.40;99.90
16827;DHT22;8530;49.540;8.576;2022-12-15T02:34:15;-1.40;99.90
16827;DHT22;8530;49.540;8.576;2022-12-15T02:36:46;-1.40;99.90
16827;DHT22;8530;49.540;8.576;2022-12-15T02:39:17;-1.40;99.90
16827;DHT22;8530;49.540;8.576;2022-12-15T02:41:45;-1.30;99.90
16827;DHT22;8530;49.540;8.576;2022-12-15T02:44:21;-1.40;99.90
16827;DHT22;8530;49.540;8.576;2022-12-15T02:47:10;-1.40;99.90
16827;DHT22;8530;49.540;8.576;2022-12-15T02:49:50;-1.40;99.90
16827;DHT22;8530;49.540;8.576;2022-12-15T02:52:29;-1.40;99.90
16827;DHT22;8530;49.540;8.576;2022-12-15T02:55:11;-1.40;99.90
16827;DHT22;8530;49.540;8.576;2022-12-15T02:57:44;-1.50;99.90
16827;DHT22;8530;49.540;8.576;2022-12-15T03:00:14;-1.50;99.90
16827;DHT22;8530;49.540;8.576;2022-12-15T03:02:47;-1.60;99.90
16827;DHT22;8530;49.540;8.576;2022-12-15T03:05:16;-1.60;99.90
16827;DHT22;8530;49.540;8.576;2022-12-15T03:07:44;-1.70;99.90
16827;DHT22;8530;49.540;8.576;2022-12-15T03:10:12;-1.70;99.90
16827;DHT22;8530;49.540;8.576;2022-12-15T03:12:39;-1.80;99.90
16827;DHT22;8530;49.540;8.576;2022-12-15T03:15:07;-1.80;99.90
16827;DHT22;8530;49.540;8.576;2022-12-15T03:17:34;-1.90;99.90
16827;DHT22;8530;49.540;8.576;2022-12-15T03:20:02;-2.00;99.90
16827;DHT22;8530;49.540;8.576;2022-12-15T03:22:29;-2.00;99.90
16827;DHT22;8530;49.540;8.576;2022-12-15T03:24:56;-2.00;99.90
16827;DHT22;8530;49.540;8.576;2022-12-15T03:27:23;-2.10;99.90
16827;DHT22;8530;49.540;8.576;2022-12-15T03:29:50;-2.20;99.90
16827;DHT22;8530;49.540;8.576;2022-12-15T03:32:16;-2.20;99.90
16827;DHT22;8530;49.540;8.576;2022-12-15T03:34:43;-2.30;99.90
16827;DHT22;8530;49.540;8.576;2022-12-15T03:37:12;-2.30;99.90
16827;DHT22;8530;49.540;8.576;2022-12-15T03:39:38;-2.30;99.90
16827;DHT22;8530;49.540;8.576;2022-12-15T03:42:05;-2.30;99.90
16827;DHT22;8530;49.540;8.576;2022-12-15T03:44:32;-2.40;99.90
16827;DHT22;8530;49.540;8.576;2022-12-15T03:46:59;-2.40;99.90
16827;DHT22;8530;49.540;8.576;2022-12-15T03:49:26;-2.40;99.90
16827;DHT22;8530;49.540;8.576;2022-12-15T03:51:53;-2.40;99.90
16827;DHT22;8530;49.540;8.576;2022-12-15T03:54:21;-2.40;99.90
16827;DHT22;8530;49.540;8.576;2022-12-15T03:56:48;-2.50;99.90
16827;DHT22;8530;49.540;8.576;2022-12-15T03:59:15;-2.50;99.90
16827;DHT22;8530;49.540;8.576;2022-12-15T04:01:45;-2.60;99.90
16827;DHT22;8530;49.540;8.576;2022-12-15T04:04:13;-2.60;99.90
16827;DHT22;8530;49.540;8.576;2022-12-15T04:06:40;-2.70;99.90
16827;DHT22;8530;49.540;8.576;2022-12-15T04:09:06;-2.80;99.90
16827;DHT22;8530;49.540;8.576;2022-12-15T04:11:35;-2.80;99.90
16827;DHT22;8530;49.540;8.576;2022-12-15T04:14:01;-2.90;99.90
16827;DHT22;8530;49.540;8.576;2022-12-15T04:16:28;-3.00;99.90
16827;DHT22;8530;49.540;8.576;2022-12-15T04:18:56;-3.00;99.90
16827;DHT22;8530;49.540;8.576;2022-12-15T04:21:41;-3.10;99.90
16827;DHT22;8530;49.540;8.576;2022-12-15T04:24:07;-3.20;99.90
16827;DHT22;8530;49.540;8.576;2022-12-15T04:26:53;-3.30;99.90
16827;DHT22;8530;49.540;8.576;2022-12-15T04:29:37;-3.30;99.90
16827;DHT22;8530;49.540;8.576;2022-12-15T04:32:22;-3.40;99.90
16827;DHT22;8530;49.540;8.576;2022-12-15T04:35:06;-3.40;99.90
16827;DHT22;8530;49.540;8.576;2022-12-15T04:37:50;-3.40;99.90
16827;DHT22;8530;49.540;8.576;2022-12-15T04:40:35;-3.40;99.90
16827;DHT22;8530;49.540;8.576;2022-12-15T04:43:20;-3.40;99.90
16827;DHT22;8530;49.540;8.576;2022-12-15T04:46:04;-3.40;99.90
16827;DHT22;8530;49.540;8.576;2022-12-15T04:48:49;-3.40;99.90
16827;DHT22;8530;49.540;8.576;2022-12-15T04:51:33;-3.30;99.90
16827;DHT22;8530;49.540;8.576;2022-12-15T04:54:18;-3.20;99.90
16827;DHT22;8530;49.540;8.576;2022-12-15T04:57:03;-3.20;99.90
16827;DHT22;8530;49.540;8.576;2022-12-15T04:59:48;-3.10;99.90
16827;DHT22;8530;49.540;8.576;2022-12-15T05:02:33;-3.00;99.90
16827;DHT22;8530;49.540;8.576;2022-12-15T05:05:17;-2.90;99.90
16827;DHT22;8530;49.540;8.576;2022-12-15T05:08:01;-2.80;99.90
16827;DHT22;8530;49.540;8.576;2022-12-15T05:10:45;-2.80;99.90
16827;DHT22;8530;49.540;8.576;2022-12-15T05:13:30;-2.70;99.90
16827;DHT22;8530;49.540;8.576;2022-12-15T05:16:15;-2.60;99.90
16827;DHT22;8530;49.540;8.576;2022-12-15T05:19:00;-2.60;99.90
16827;DHT22;8530;49.540;8.576;2022-12-15T05:21:44;-2.60;99.90
16827;DHT22;8530;49.540;8.576;2022-12-15T05:24:29;-2.50;99.90
16827;DHT22;8530;49.540;8.576;2022-12-15T05:27:13;-2.60;99.90
16827;DHT22;8530;49.540;8.576;2022-12-15T05:29:57;-2.60;99.90
16827;DHT22;8530;49.540;8.576;2022-12-15T05:32:43;-2.60;99.90
16827;DHT22;8530;49.540;8.576;2022-12-15T05:35:09;-2.60;99.90
16827;DHT22;8530;49.540;8.576;2022-12-15T05:37:36;-2.60;99.90
16827;DHT22;8530;49.540;8.576;2022-12-15T05:40:04;-2.70;99.90
16827;DHT22;8530;49.540;8.576;2022-12-15T05:42:30;-2.70;99.90
16827;DHT22;8530;49.540;8.576;2022-12-15T05:44:57;-2.80;99.90
16827;DHT22;8530;49.540;8.576;2022-12-15T05:47:24;-2.90;99.90
16827;DHT22;8530;49.540;8.576;2022-12-15T05:49:52;-2.90;99.90
16827;DHT22;8530;49.540;8.576;2022-12-15T05:52:19;-3.00;99.90
16827;DHT22;8530;49.540;8.576;2022-12-15T05:54:45;-3.10;99.90
16827;DHT22;8530;49.540;8.576;2022-12-15T05:57:12;-3.20;99.90
16827;DHT22;8530;49.540;8.576;2022-12-15T05:59:39;-3.20;99.90
16827;DHT22;8530;49.540;8.576;2022-12-15T06:02:06;-3.30;99.90
16827;DHT22;8530;49.540;8.576;2022-12-15T06:04:33;-3.30;99.90
16827;DHT22;8530;49.540;8.576;2022-12-15T06:07:01;-3.40;99.90
16827;DHT22;8530;49.540;8.576;2022-12-15T06:09:28;-3.40;99.90
16827;DHT22;8530;49.540;8.576;2022-12-15T06:11:55;-3.50;99.90
16827;DHT22;8530;49.540;8.576;2022-12-15T06:14:22;-3.60;99.90
16827;DHT22;8530;49.540;8.576;2022-12-15T06:16:48;-3.60;99.90
16827;DHT22;8530;49.540;8.576;2022-12-15T06:19:16;-3.70;99.90
16827;DHT22;8530;49.540;8.576;2022-12-15T06:21:42;-3.80;99.90
16827;DHT22;8530;49.540;8.576;2022-12-15T06:24:11;-3.80;99.90
16827;DHT22;8530;49.540;8.576;2022-12-15T06:26:38;-3.90;99.90
16827;DHT22;8530;49.540;8.576;2022-12-15T06:29:08;-4.00;99.90
16827;DHT22;8530;49.540;8.576;2022-12-15T06:31:38;-4.00;99.90
16827;DHT22;8530;49.540;8.576;2022-12-15T06:34:07;-4.10;99.90
16827;DHT22;8530;49.540;8.576;2022-12-15T06:36:37;-4.10;99.90
16827;DHT22;8530;49.540;8.576;2022-12-15T06:39:09;-4.20;99.90
16827;DHT22;8530;49.540;8.576;2022-12-15T06:41:38;-4.20;99.90
16827;DHT22;8530;49.540;8.576;2022-12-15T06:44:05;-4.20;99.90
16827;DHT22;8530;49.540;8.576;2022-12-15T06:46:33;-4.20;99.90
16827;DHT22;8530;49.540;8.576;2022-12-15T06:49:00;-4.20;99.90
16827;DHT22;8530;49.540;8.576;2022-12-15T06:51:27;-4.20;99.90
16827;DHT22;8530;49.540;8.576;2022-12-15T06:53:54;-4.30;99.90
16827;DHT22;8530;49.540;8.576;2022-12-15T06:56:24;-4.30;99.90
16827;DHT22;8530;49.540;8.576;2022-12-15T06:58:53;-4.30;99.90
16827;DHT22;8530;49.540;8.576;2022-12-15T07:01:22;-4.40;99.90
16827;DHT22;8530;49.540;8.576;2022-12-15T07:03:51;-4.40;99.90
16827;DHT22;8530;49.540;8.576;2022-12-15T07:06:18;-4.40;99.90
16827;DHT22;8530;49.540;8.576;2022-12-15T07:08:48;-4.40;99.90
16827;DHT22;8530;49.540;8.576;2022-12-15T07:11:17;-4.50;99.90
16827;DHT22;8530;49.540;8.576;2022-12-15T07:13:47;-4.50;99.90
16827;DHT22;8530;49.540;8.576;2022-12-15T07:16:16;-4.50;99.90
16827;DHT22;8530;49.540;8.576;2022-12-15T07:18:43;-4.50;99.90
16827;DHT22;8530;49.540;8.576;2022-12-15T07:21:10;-4.40;99.90
16827;DHT22;8530;49.540;8.576;2022-12-15T07:23:38;-4.40;99.90
16827;DHT22;8530;49.540;8.576;2022-12-15T07:26:06;-4.50;99.90
16827;DHT22;8530;49.540;8.576;2022-12-15T07:28:34;-4.40;99.90
16827;DHT22;8530;49.540;8.576;2022-12-15T07:31:02;-4.40;99.90
16827;DHT22;8530;49.540;8.576;2022-12-15T07:33:32;-4.50;99.90
16827;DHT22;8530;49.540;8.576;2022-12-15T07:35:59;-4.50;99.90
16827;DHT22;8530;49.540;8.576;2022-12-15T07:38:26;-4.40;99.90
16827;DHT22;8530;49.540;8.576;2022-12-15T07:40:53;-4.50;99.90
16827;DHT22;8530;49.540;8.576;2022-12-15T07:43:20;-4.50;99.90
16827;DHT22;8530;49.540;8.576;2022-12-15T07:45:51;-4.50;99.90
16827;DHT22;8530;49.540;8.576;2022-12-15T07:48:18;-4.50;99.90
16827;DHT22;8530;49.540;8.576;2022-12-15T07:50:46;-4.50;99.90
16827;DHT22;8530;49.540;8.576;2022-12-15T07:53:13;-4.50;99.90
16827;DHT22;8530;49.540;8.576;2022-12-15T07:55:40;-4.50;99.90
16827;DHT22;8530;49.540;8.576;2022-12-15T07:58:06;-4.60;99.90
16827;DHT22;8530;49.540;8.576;2022-12-15T08:00:33;-4.60;99.90
16827;DHT22;8530;49.540;8.576;2022-12-15T08:03:00;-4.50;99.90
16827;DHT22;8530;49.540;8.576;2022-12-15T08:05:27;-4.50;99.90
16827;DHT22;8530;49.540;8.576;2022-12-15T08:07:57;-4.50;99.90
16827;DHT22;8530;49.540;8.576;2022-12-15T08:10:24;-4.40;99.90
16827;DHT22;8530;49.540;8.576;2022-12-15T08:12:51;-4.30;99.90
16827;DHT22;8530;49.540;8.576;2022-12-15T08:15:20;-4.00;99.90
16827;DHT22;8530;49.540;8.576;2022-12-15T08:17:47;-3.60;99.90
16827;DHT22;8530;49.540;8.576;2022-12-15T08:20:14;-3.40;99.90
16827;DHT22;8530;49.540;8.576;2022-12-15T08:22:42;-3.40;99.90
16827;DHT22;8530;49.540;8.576;2022-12-15T08:25:10;-3.40;99.90
16827;DHT22;8530;49.540;8.576;2022-12-15T08:27:37;-3.40;99.90
16827;DHT22;8530;49.540;8.576;2022-12-15T08:30:05;-3.50;99.90
16827;DHT22;8530;49.540;8.576;2022-12-15T08:32:33;-3.50;99.90
16827;DHT22;8530;49.540;8.576;2022-12-15T08:35:00;-3.50;99.90
16827;DHT22;8530;49.540;8.576;2022-12-15T08:37:26;-3.50;99.90
16827;DHT22;8530;49.540;8.576;2022-12-15T08:39:53;-3.60;99.90
16827;DHT22;8530;49.540;8.576;2022-12-15T08:42:23;-3.60;99.90
16827;DHT22;8530;49.540;8.576;2022-12-15T08:44:50;-3.60;99.90
16827;DHT22;8530;49.540;8.576;2022-12-15T08:47:17;-3.50;99.90
16827;DHT22;8530;49.540;8.576;2022-12-15T08:49:44;-3.50;99.90
16827;DHT22;8530;49.540;8.576;2022-12-15T08:52:11;-3.40;99.90
16827;DHT22;8530;49.540;8.576;2022-12-15T08:54:38;-3.30;99.90
16827;DHT22;8530;49.540;8.576;2022-12-15T08:57:07;-3.30;99.90
16827;DHT22;8530;49.540;8.576;2022-12-15T08:59:38;-3.20;99.90
16827;DHT22;8530;49.540;8.576;2022-12-15T09:02:05;-3.00;99.90
16827;DHT22;8530;49.540;8.576;2022-12-15T09:04:32;-2.90;99.90
16827;DHT22;8530;49.540;8.576;2022-12-15T09:06:59;-2.80;99.90
16827;DHT22;8530;49.540;8.576;2022-12-15T09:09:26;-2.60;99.90
16827;DHT22;8530;49.540;8.576;2022-12-15T09:11:53;-2.20;99.90
16827;DHT22;8530;49.540;8.576;2022-12-15T09:14:19;-1.80;99.90
16827;DHT22;8530;49.540;8.576;2022-12-15T09:16:48;-1.30;99.90
16827;DHT22;8530;49.540;8.576;2022-12-15T09:19:15;-0.70;99.90
16827;DHT22;8530;49.540;8.576;2022-12-15T09:21:42;0.00;99.90
16827;DHT22;8530;49.540;8.576;2022-12-15T09:24:11;0.70;99.90
16827;DHT22;8530;49.540;8.576;2022-12-15T09:26:39;1.10;99.90
16827;DHT22;8530;49.540;8.576;2022-12-15T09:29:09;1.40;99.90
16827;DHT22;8530;49.540;8.576;2022-12-15T09:31:37;1.70;99.90
16827;DHT22;8530;49.540;8.576;2022-12-15T09:34:05;2.00;99.90
16827;DHT22;8530;49.540;8.576;2022-12-15T09:36:33;2.10;99.90
16827;DHT22;8530;49.540;8.576;2022-12-15T09:39:00;2.10;99.90
16827;DHT22;8530;49.540;8.576;2022-12-15T09:41:30;2.00;99.70
16827;DHT22;8530;49.540;8.576;2022-12-15T09:44:00;2.00;99.40
16827;DHT22;8530;49.540;8.576;2022-12-15T09:49:52;1.70;98.20
16827;DHT22;8530;49.540;8.576;2022-12-15T09:52:23;1.40;98.20
16827;DHT22;8530;49.540;8.576;2022-12-15T09:54:51;1.20;98.00
16827;DHT22;8530;49.540;8.576;2022-12-15T09:57:35;1.00;98.00
16827;DHT22;8530;49.540;8.576;2022-12-15T10:00:09;0.90;97.80
16827;DHT22;8530;49.540;8.576;2022-12-15T10:03:08;0.70;97.80
16827;DHT22;8530;49.540;8.576;2022-12-15T10:08:32;0.60;97.80
16827;DHT22;8530;49.540;8.576;2022-12-15T10:11:02;0.50;97.70
16827;DHT22;8530;49.540;8.576;2022-12-15T10:13:36;0.40;97.50
16827;DHT22;8530;49.540;8.576;2022-12-15T10:16:11;0.40;97.60
16827;DHT22;8530;49.540;8.576;2022-12-15T10:18:54;0.30;97.70
16827;DHT22;8530;49.540;8.576;2022-12-15T10:21:26;0.30;97.60
16827;DHT22;8530;49.540;8.576;2022-12-15T10:23:56;0.30;97.60
16827;DHT22;8530;49.540;8.576;2022-12-15T10:26:29;0.20;97.50
16827;DHT22;8530;49.540;8.576;2022-12-15T10:29:08;0.20;97.80
16827;DHT22;8530;49.540;8.576;2022-12-15T10:31:44;0.20;97.60
16827;DHT22;8530;49.540;8.576;2022-12-15T10:34:21;0.20;97.50
16827;DHT22;8530;49.540;8.576;2022-12-15T10:36:51;0.30;97.60
16827;DHT22;8530;49.540;8.576;2022-12-15T10:39:19;0.30;97.60
16827;DHT22;8530;49.540;8.576;2022-12-15T10:42:10;0.30;97.60
16827;DHT22;8530;49.540;8.576;2022-12-15T10:44:39;0.40;97.60
16827;DHT22;8530;49.540;8.576;2022-12-15T10:47:15;0.40;97.60
16827;DHT22;8530;49.540;8.576;2022-12-15T10:49:42;0.40;97.50
16827;DHT22;8530;49.540;8.576;2022-12-15T10:52:26;0.40;97.50
16827;DHT22;8530;49.540;8.576;2022-12-15T10:54:57;0.30;97.40
16827;DHT22;8530;49.540;8.576;2022-12-15T10:57:25;0.30;97.40
16827;DHT22;8530;49.540;8.576;2022-12-15T11:00:23;0.20;97.30
16827;DHT22;8530;49.540;8.576;2022-12-15T11:02:51;0.10;97.20
16827;DHT22;8530;49.540;8.576;2022-12-15T11:05:19;0.10;97.30
16827;DHT22;8530;49.540;8.576;2022-12-15T11:07:50;0.00;97.30
16827;DHT22;8530;49.540;8.576;2022-12-15T11:10:20;0.10;97.40
16827;DHT22;8530;49.540;8.576;2022-12-15T11:12:56;0.10;97.30
16827;DHT22;8530;49.540;8.576;2022-12-15T11:15:46;0.10;97.30
16827;DHT22;8530;49.540;8.576;2022-12-15T11:18:41;0.00;97.30
16827;DHT22;8530;49.540;8.576;2022-12-15T11:21:12;0.00;97.30
16827;DHT22;8530;49.540;8.576;2022-12-15T11:23:56;0.00;97.40
16827;DHT22;8530;49.540;8.576;2022-12-15T11:26:33;0.00;97.50
16827;DHT22;8530;49.540;8.576;2022-12-15T11:29:08;0.10;97.50
16827;DHT22;8530;49.540;8.576;2022-12-15T11:31:41;0.10;97.50
16827;DHT22;8530;49.540;8.576;2022-12-15T11:34:11;0.10;97.40
16827;DHT22;8530;49.540;8.576;2022-12-15T11:36:57;0.00;97.40
16827;DHT22;8530;49.540;8.576;2022-12-15T11:39:47;0.10;97.40
16827;DHT22;8530;49.540;8.576;2022-12-15T11:42:22;0.20;97.50
16827;DHT22;8530;49.540;8.576;2022-12-15T11:44:59;0.20;97.40
16827;DHT22;8530;49.540;8.576;2022-12-15T11:47:35;0.10;97.20
16827;DHT22;8530;49.540;8.576;2022-12-15T11:50:15;0.10;97.30
16827;DHT22;8530;49.540;8.576;2022-12-15T11:53:09;0.20;97.40
16827;DHT22;8530;49.540;8.576;2022-12-15T11:55:45;0.20;97.40
16827;DHT22;8530;49.540;8.576;2022-12-15T11:58:37;0.30;97.30
16827;DHT22;8530;49.540;8.576;2022-12-15T12:01:15;0.20;97.10
16827;DHT22;8530;49.540;8.576;2022-12-15T12:03:54;0.30;97.20
16827;DHT22;8530;49.540;8.576;2022-12-15T12:06:33;0.30;97.20
16827;DHT22;8530;49.540;8.576;2022-12-15T12:09:24;0.20;97.00
16827;DHT22;8530;49.540;8.576;2022-12-15T12:11:58;0.10;97.00
16827;DHT22;8530;49.540;8.576;2022-12-15T12:14:36;0.00;97.00
16827;DHT22;8530;49.540;8.576;2022-12-15T12:17:07;0.00;97.20
16827;DHT22;8530;49.540;8.576;2022-12-15T12:19:40;0.00;97.30
16827;DHT22;8530;49.540;8.576;2022-12-15T12:22:16;0.10;97.50
16827;DHT22;8530;49.540;8.576;2022-12-15T12:24:51;0.20;97.40
16827;DHT22;8530;49.540;8.576;2022-12-15T12:27:26;0.30;97.30
16827;DHT22;8530;49.540;8.576;2022-12-15T12:29:59;0.20;97.10
16827;DHT22;8530;49.540;8.576;2022-12-15T12:32:35;0.20;97.10
16827;DHT22;8530;49.540;8.576;2022-12-15T12:35:08;0.20;97.10
16827;DHT22;8530;49.540;8.576;2022-12-15T12:37:41;0.10;97.10
16827;DHT22;8530;49.540;8.576;2022-12-15T12:40:16;0.10;97.10
16827;DHT22;8530;49.540;8.576;2022-12-15T12:42:53;0.20;97.20
16827;DHT22;8530;49.540;8.576;2022-12-15T12:45:24;0.20;97.20
16827;DHT22;8530;49.540;8.576;2022-12-15T12:47:55;0.20;97.20
16827;DHT22;8530;49.540;8.576;2022-12-15T12:50:27;0.20;97.10
16827;DHT22;8530;49.540;8.576;2022-12-15T12:52:57;0.20;97.10
16827;DHT22;8530;49.540;8.576;2022-12-15T12:55:27;0.10;97.10
16827;DHT22;8530;49.540;8.576;2022-12-15T12:57:56;0.10;97.10
16827;DHT22;8530;49.540;8.576;2022-12-15T13:00:24;0.00;97.00
16827;DHT22;8530;49.540;8.576;2022-12-15T13:03:14;-0.10;97.00
16827;DHT22;8530;49.540;8.576;2022-12-15T13:05:43;-0.10;97.00
16827;DHT22;8530;49.540;8.576;2022-12-15T13:14:34;-0.20;97.20
16827;DHT22;8530;49.540;8.576;2022-12-15T13:17:04;-0.20;97.30
16827;DHT22;8530;49.540;8.576;2022-12-15T13:22:54;-0.20;97.30
16827;DHT22;8530;49.540;8.576;2022-12-15T13:25:36;-0.10;97.40
16827;DHT22;8530;49.540;8.576;2022-12-15T13:28:25;-0.10;97.40
16827;DHT22;8530;49.540;8.576;2022-12-15T13:31:30;0.00;97.50
16827;DHT22;8530;49.540;8.576;2022-12-15T13:34:15;0.10;97.50
16827;DHT22;8530;49.540;8.576;2022-12-15T13:36:52;0.20;97.50
16827;DHT22;8530;49.540;8.576;2022-12-15T13:39:51;0.20;97.40
16827;DHT22;8530;49.540;8.576;2022-12-15T13:42:26;0.20;97.30
16827;DHT22;8530;49.540;8.576;2022-12-15T13:45:02;0.10;97.20
16827;DHT22;8530;49.540;8.576;2022-12-15T13:47:32;0.10;97.20
16827;DHT22;8530;49.540;8.576;2022-12-15T13:50:04;0.10;97.30
16827;DHT22;8530;49.540;8.576;2022-12-15T13:52:35;0.10;97.30
16827;DHT22;8530;49.540;8.576;2022-12-15T13:55:13;0.00;97.20
16827;DHT22;8530;49.540;8.576;2022-12-15T13:57:49;0.00;97.30
16827;DHT22;8530;49.540;8.576;2022-12-15T14:00:17;0.10;97.40
16827;DHT22;8530;49.540;8.576;2022-12-15T14:02:46;0.10;97.40
16827;DHT22;8530;49.540;8.576;2022-12-15T14:05:15;0.10;97.40
16827;DHT22;8530;49.540;8.576;2022-12-15T14:07:46;0.10;97.40
16827;DHT22;8530;49.540;8.576;2022-12-15T14:10:19;0.20;97.40
16827;DHT22;8530;49.540;8.576;2022-12-15T14:12:49;0.20;97.50
16827;DHT22;8530;49.540;8.576;2022-12-15T14:15:18;0.20;97.40
16827;DHT22;8530;49.540;8.576;2022-12-15T14:17:49;0.20;97.40
16827;DHT22;8530;49.540;8.576;2022-12-15T14:20:20;0.20;97.30
16827;DHT22;8530;49.540;8.576;2022-12-15T14:22:47;0.10;97.30
16827;DHT22;8530;49.540;8.576;2022-12-15T14:25:19;0.10;97.30
16827;DHT22;8530;49.540;8.576;2022-12-15T14:27:47;0.00;97.20
16827;DHT22;8530;49.540;8.576;2022-12-15T14:30:20;0.00;97.30
16827;DHT22;8530;49.540;8.576;2022-12-15T14:32:53;-0.10;97.30
16827;DHT22;8530;49.540;8.576;2022-12-15T14:35:24;-0.20;97.30
16827;DHT22;8530;49.540;8.576;2022-12-15T14:37:56;-0.30;97.20
16827;DHT22;8530;49.540;8.576;2022-12-15T14:40:24;-0.30;97.20
16827;DHT22;8530;49.540;8.576;2022-12-15T14:42:52;-0.40;97.30
16827;DHT22;8530;49.540;8.576;2022-12-15T14:45:21;-0.40;97.30
16827;DHT22;8530;49.540;8.576;2022-12-15T14:47:53;-0.50;97.40
16827;DHT22;8530;49.540;8.576;2022-12-15T14:50:22;-0.50;97.40
16827;DHT22;8530;49.540;8.576;2022-12-15T14:52:53;-0.50;97.50
16827;DHT22;8530;49.540;8.576;2022-12-15T14:55:28;-0.60;97.50
16827;DHT22;8530;49.540;8.576;2022-12-15T14:57:58;-0.60;97.50
16827;DHT22;8530;49.540;8.576;2022-12-15T15:00:27;-0.70;97.50
16827;DHT22;8530;49.540;8.576;2022-12-15T15:03:20;-0.70;97.60
16827;DHT22;8530;49.540;8.576;2022-12-15T15:05:54;-0.80;97.60
16827;DHT22;8530;49.540;8.576;2022-12-15T15:08:25;-0.80;97.60
16827;DHT22;8530;49.540;8.576;2022-12-15T15:10:54;-0.90;97.70
16827;DHT22;8530;49.540;8.576;2022-12-15T15:13:24;-0.90;97.70
16827;DHT22;8530;49.540;8.576;2022-12-15T15:15:54;-0.90;97.80
16827;DHT22;8530;49.540;8.576;2022-12-15T15:18:26;-0.90;97.90
16827;DHT22;8530;49.540;8.576;2022-12-15T15:20:55;-1.00;97.90
16827;DHT22;8530;49.540;8.576;2022-12-15T15:23:24;-1.00;97.90
16827;DHT22;8530;49.540;8.576;2022-12-15T15:25:52;-1.00;98.00
16827;DHT22;8530;49.540;8.576;2022-12-15T15:28:24;-1.00;98.00
16827;DHT22;8530;49.540;8.576;2022-12-15T15:30:53;-1.10;98.00
16827;DHT22;8530;49.540;8.576;2022-12-15T15:33:23;-1.10;98.00
16827;DHT22;8530;49.540;8.576;2022-12-15T15:35:52;-1.10;98.00
16827;DHT22;8530;49.540;8.576;2022-12-15T15:38:22;-1.20;97.90
16827;DHT22;8530;49.540;8.576;2022-12-15T15:40:52;-1.20;98.00
16827;DHT22;8530;49.540;8.576;2022-12-15T15:43:20;-1.30;98.00
16827;DHT22;8530;49.540;8.576;2022-12-15T15:45:47;-1.30;98.40
16827;DHT22;8530;49.540;8.576;2022-12-15T15:48:22;-1.40;98.10
16827;DHT22;8530;49.540;8.576;2022-12-15T15:50:51;-1.40;98.10
16827;DHT22;8530;49.540;8.576;2022-12-15T15:53:19;-1.40;98.10
16827;DHT22;8530;49.540;8.576;2022-12-15T15:55:48;-1.50;98.10
16827;DHT22;8530;49.540;8.576;2022-12-15T15:58:16;-1.50;98.10
16827;DHT22;8530;49.540;8.576;2022-12-15T16:00:43;-1.50;98.10
16827;DHT22;8530;49.540;8.576;2022-12-15T16:03:12;-1.60;98.00
16827;DHT22;8530;49.540;8.576;2022-12-15T16:05:39;-1.70;98.00
16827;DHT22;8530;49.540;8.576;2022-12-15T16:08:12;-1.70;98.10
16827;DHT22;8530;49.540;8.576;2022-12-15T16:10:42;-1.70;98.10
16827;DHT22;8530;49.540;8.576;2022-12-15T16:13:11;-1.70;98.10
16827;DHT22;8530;49.540;8.576;2022-12-15T16:15:40;-1.80;98.10
16827;DHT22;8530;49.540;8.576;2022-12-15T16:18:06;-1.80;98.10
16827;DHT22;8530;49.540;8.576;2022-12-15T16:20:34;-1.80;98.20
16827;DHT22;8530;49.540;8.576;2022-12-15T16:23:04;-1.80;98.20
16827;DHT22;8530;49.540;8.576;2022-12-15T16:25:38;-1.80;98.20
16827;DHT22;8530;49.540;8.576;2022-12-15T16:28:10;-1.80;98.30
16827;DHT22;8530;49.540;8.576;2022-12-15T16:30:39;-1.80;98.30
16827;DHT22;8530;49.540;8.576;2022-12-15T16:33:06;-1.80;98.20
16827;DHT22;8530;49.540;8.576;2022-12-15T16:35:33;-1.80;98.20
16827;DHT22;8530;49.540;8.576;2022-12-15T16:38:02;-1.70;98.30
16827;DHT22;8530;49.540;8.576;2022-12-15T16:40:29;-1.80;98.30
16827;DHT22;8530;49.540;8.576;2022-12-15T16:42:58;-1.80;98.30
16827;DHT22;8530;49.540;8.576;2022-12-15T16:45:28;-1.70;98.30